createdAt,value
2017-03-12T00:00:39.321Z,0
2017-03-12T00:01:49.128Z,0
2017-03-12T00:02:58.537Z,0
2017-03-12T00:04:07.635Z,0
2017-03-12T00:05:17.435Z,0
2017-03-12T00:06:26.848Z,0
2017-03-12T00:07:36.660Z,0
2017-03-12T00:08:45.789Z,0
2017-03-12T00:09:54.988Z,0
2017-03-12T00:11:04.007Z,0
2017-03-12T00:12:13.477Z,0
2017-03-12T00:13:22.475Z,0
2017-03-12T00:14:31.381Z,0
2017-03-12T00:15:40.374Z,0
2017-03-12T00:16:50.188Z,0
2017-03-12T00:17:59.204Z,0
2017-03-12T00:19:08.603Z,0
2017-03-12T00:20:18.077Z,0
2017-03-12T00:21:27.086Z,0
2017-03-12T00:22:36.093Z,0
2017-03-12T00:23:45.494Z,0
2017-03-12T00:24:54.089Z,0
2017-03-12T00:26:04.289Z,0
2017-03-12T00:27:13.292Z,0
2017-03-12T00:28:22.356Z,0
2017-03-12T00:29:31.787Z,0
2017-03-12T00:30:41.197Z,0
2017-03-12T00:31:50.598Z,0
2017-03-12T00:32:59.213Z,0
2017-03-12T00:34:08.427Z,0
2017-03-12T00:35:17.829Z,0
2017-03-12T00:36:27.253Z,0
2017-03-12T00:37:37.080Z,0
2017-03-12T00:38:46.629Z,0
2017-03-12T00:39:55.643Z,0
2017-03-12T00:41:04.645Z,0
2017-03-12T00:42:13.651Z,0
2017-03-12T00:43:23.071Z,0
2017-03-12T00:44:32.872Z,0
2017-03-12T00:45:41.890Z,0
2017-03-12T00:46:51.309Z,0
2017-03-12T00:48:00.708Z,0
2017-03-12T00:49:09.718Z,0
2017-03-12T00:50:18.715Z,0
2017-03-12T00:51:27.738Z,0
2017-03-12T00:52:37.156Z,0
2017-03-12T00:53:46.159Z,0
2017-03-12T00:54:55.579Z,0
2017-03-12T00:56:05.007Z,0
2017-03-12T00:57:13.604Z,0
2017-03-12T00:58:23.396Z,0
2017-03-12T00:59:32.793Z,0
2017-03-12T01:00:41.799Z,0
2017-03-12T01:01:50.838Z,0
2017-03-12T01:03:00.639Z,0
2017-03-12T01:04:09.297Z,0
2017-03-12T01:05:19.119Z,0
2017-03-12T01:06:28.151Z,0
2017-03-12T01:07:37.159Z,0
2017-03-12T01:08:45.783Z,0
2017-03-12T01:09:55.221Z,0
2017-03-12T01:11:03.851Z,0
2017-03-12T01:12:13.526Z,0
2017-03-12T01:13:23.361Z,0
2017-03-12T01:14:32.761Z,0
2017-03-12T01:15:42.569Z,0
2017-03-12T01:16:51.572Z,0
2017-03-12T01:18:01.780Z,0
2017-03-12T01:19:10.392Z,0
2017-03-12T01:20:19.441Z,0
2017-03-12T01:21:28.966Z,0
2017-03-12T01:22:38.796Z,0
2017-03-12T01:23:48.597Z,0
2017-03-12T01:24:57.216Z,0
2017-03-12T01:26:06.675Z,0
2017-03-12T01:27:15.685Z,0
2017-03-12T01:28:25.490Z,0
2017-03-12T01:29:35.284Z,0
2017-03-12T01:30:44.315Z,0
2017-03-12T01:31:52.945Z,0
2017-03-12T01:33:01.949Z,0
2017-03-12T01:34:11.377Z,0
2017-03-12T01:35:20.811Z,0
2017-03-12T01:36:29.824Z,0
2017-03-12T01:37:39.642Z,0
2017-03-12T01:38:49.455Z,0
2017-03-12T01:39:58.482Z,0
2017-03-12T01:41:08.329Z,0
2017-03-12T01:42:17.234Z,0
2017-03-12T01:43:26.666Z,0
2017-03-12T01:44:36.472Z,0
2017-03-12T01:45:45.491Z,0
2017-03-12T01:46:54.499Z,0
2017-03-12T01:48:04.164Z,0
2017-03-12T01:49:13.178Z,0
2017-03-12T01:50:22.192Z,0
2017-03-12T01:51:31.194Z,0
2017-03-12T01:52:40.192Z,0
2017-03-12T01:53:49.194Z,0
2017-03-12T01:54:58.603Z,0
2017-03-12T01:56:08.040Z,0
2017-03-12T01:57:17.460Z,0
2017-03-12T01:58:26.863Z,0
2017-03-12T01:59:36.528Z,0
2017-03-12T02:00:45.927Z,0
2017-03-12T02:01:54.524Z,0
2017-03-12T02:03:03.534Z,0
2017-03-12T02:04:12.559Z,0
2017-03-12T02:05:21.626Z,0
2017-03-12T02:06:30.267Z,0
2017-03-12T02:07:39.681Z,0
2017-03-12T02:08:48.696Z,0
2017-03-12T02:09:57.309Z,0
2017-03-12T02:11:06.312Z,0
2017-03-12T02:12:15.316Z,0
2017-03-12T02:13:24.366Z,0
2017-03-12T02:14:34.570Z,0
2017-03-12T02:15:43.574Z,0
2017-03-12T02:16:52.994Z,0
2017-03-12T02:18:01.995Z,0
2017-03-12T02:19:11.410Z,0
2017-03-12T02:20:20.430Z,0
2017-03-12T02:21:29.445Z,0
2017-03-12T02:22:38.488Z,0
2017-03-12T02:23:47.888Z,0
2017-03-12T02:24:57.285Z,0
2017-03-12T02:26:07.085Z,0
2017-03-12T02:27:16.884Z,0
2017-03-12T02:28:26.302Z,0
2017-03-12T02:29:35.720Z,0
2017-03-12T02:30:45.518Z,0
2017-03-12T02:31:54.135Z,0
2017-03-12T02:33:03.138Z,0
2017-03-12T02:34:11.732Z,0
2017-03-12T02:35:21.144Z,0
2017-03-12T02:36:31.220Z,0
2017-03-12T02:37:40.260Z,0
2017-03-12T02:38:49.267Z,0
2017-03-12T02:39:58.672Z,0
2017-03-12T02:41:07.287Z,0
2017-03-12T02:42:16.290Z,0
2017-03-12T02:43:25.693Z,0
2017-03-12T02:44:34.301Z,0
2017-03-12T02:45:44.538Z,0
2017-03-12T02:46:53.538Z,0
2017-03-12T02:48:02.145Z,0
2017-03-12T02:49:11.560Z,0
2017-03-12T02:50:20.167Z,0
2017-03-12T02:51:28.777Z,0
2017-03-12T02:52:38.205Z,0
2017-03-12T02:53:47.229Z,0
2017-03-12T02:54:56.292Z,0
2017-03-12T02:56:05.699Z,0
2017-03-12T02:57:14.337Z,0
2017-03-12T02:58:23.345Z,0
2017-03-12T02:59:33.178Z,0
2017-03-12T03:00:42.593Z,0
2017-03-12T03:01:51.610Z,0
2017-03-12T03:03:00.226Z,0
2017-03-12T03:04:09.258Z,0
2017-03-12T03:05:17.855Z,0
2017-03-12T03:06:26.451Z,0
2017-03-12T03:07:35.466Z,0
2017-03-12T03:08:44.906Z,0
2017-03-12T03:09:53.922Z,0
2017-03-12T03:11:03.324Z,0
2017-03-12T03:12:11.941Z,0
2017-03-12T03:13:20.536Z,0
2017-03-12T03:14:29.138Z,0
2017-03-12T03:15:38.557Z,0
2017-03-12T03:16:47.988Z,0
2017-03-12T03:17:57.795Z,0
2017-03-12T03:19:06.808Z,0
2017-03-12T03:20:16.222Z,0
2017-03-12T03:21:25.239Z,0
2017-03-12T03:22:34.678Z,0
2017-03-12T03:23:43.689Z,0
2017-03-12T03:24:52.689Z,0
2017-03-12T03:26:01.297Z,0
2017-03-12T03:27:09.921Z,0
2017-03-12T03:28:19.334Z,0
2017-03-12T03:29:28.339Z,0
2017-03-12T03:30:37.770Z,0
2017-03-12T03:31:46.762Z,0
2017-03-12T03:32:56.159Z,0
2017-03-12T03:34:05.166Z,0
2017-03-12T03:35:14.625Z,0
2017-03-12T03:36:23.248Z,0
2017-03-12T03:37:33.046Z,0
2017-03-12T03:38:42.039Z,0
2017-03-12T03:39:51.047Z,0
2017-03-12T03:41:00.062Z,0
2017-03-12T03:42:08.669Z,0
2017-03-12T03:43:17.699Z,0
2017-03-12T03:44:27.753Z,0
2017-03-12T03:45:37.175Z,0
2017-03-12T03:46:46.191Z,0
2017-03-12T03:47:54.783Z,0
2017-03-12T03:49:03.791Z,0
2017-03-12T03:50:12.787Z,0
2017-03-12T03:51:22.603Z,0
2017-03-12T03:52:31.596Z,0
2017-03-12T03:53:41.407Z,0
2017-03-12T03:54:50.824Z,0
2017-03-12T03:56:00.251Z,0
2017-03-12T03:57:09.244Z,0
2017-03-12T03:58:18.255Z,0
2017-03-12T03:59:28.070Z,0
2017-03-12T04:00:37.065Z,0
2017-03-12T04:01:46.086Z,0
2017-03-12T04:02:54.716Z,0
2017-03-12T04:04:04.513Z,0
2017-03-12T04:05:13.512Z,0
2017-03-12T04:06:22.101Z,0
2017-03-12T04:07:30.698Z,0
2017-03-12T04:08:39.326Z,0
2017-03-12T04:09:48.724Z,0
2017-03-12T04:10:58.525Z,0
2017-03-12T04:12:08.327Z,0
2017-03-12T04:13:18.124Z,0
2017-03-12T04:14:27.155Z,0
2017-03-12T04:15:36.952Z,0
2017-03-12T04:16:46.758Z,0
2017-03-12T04:17:55.772Z,0
2017-03-12T04:19:06.186Z,0
2017-03-12T04:20:14.812Z,0
2017-03-12T04:21:23.840Z,0
2017-03-12T04:22:33.630Z,0
2017-03-12T04:23:43.054Z,0
2017-03-12T04:24:52.110Z,0
2017-03-12T04:26:01.952Z,0
2017-03-12T04:27:10.973Z,0
2017-03-12T04:28:19.968Z,0
2017-03-12T04:29:29.363Z,0
2017-03-12T04:30:38.805Z,0
2017-03-12T04:31:47.803Z,0
2017-03-12T04:32:57.222Z,0
2017-03-12T04:34:05.821Z,0
2017-03-12T04:35:15.231Z,0
2017-03-12T04:36:23.860Z,0
2017-03-12T04:37:32.683Z,0
2017-03-12T04:38:42.967Z,0
2017-03-12T04:39:52.072Z,0
2017-03-12T04:41:01.114Z,0
2017-03-12T04:42:10.113Z,0
2017-03-12T04:43:18.736Z,0
2017-03-12T04:44:28.154Z,0
2017-03-12T04:45:37.188Z,0
2017-03-12T04:46:46.273Z,0
2017-03-12T04:47:56.074Z,0
2017-03-12T04:49:05.073Z,0
2017-03-12T04:50:14.062Z,0
2017-03-12T04:51:23.460Z,0
2017-03-12T04:52:32.858Z,0
2017-03-12T04:53:41.595Z,0
2017-03-12T04:54:50.735Z,0
2017-03-12T04:55:59.794Z,0
2017-03-12T04:57:08.914Z,0
2017-03-12T04:58:17.817Z,0
2017-03-12T04:59:26.556Z,0
2017-03-12T05:00:36.047Z,0
2017-03-12T05:01:45.505Z,0
2017-03-12T05:02:55.076Z,0
2017-03-12T05:04:04.094Z,0
2017-03-12T05:05:13.596Z,0
2017-03-12T05:06:23.534Z,0
2017-03-12T05:07:32.587Z,0
2017-03-12T05:08:41.234Z,0
2017-03-12T05:09:51.449Z,0
2017-03-12T05:11:00.600Z,0
2017-03-12T05:12:10.032Z,0
2017-03-12T05:13:19.090Z,0
2017-03-12T05:14:28.113Z,0
2017-03-12T05:15:36.740Z,0
2017-03-12T05:16:46.241Z,0
2017-03-12T05:17:55.316Z,0
2017-03-12T05:19:05.191Z,0
2017-03-12T05:20:13.901Z,0
2017-03-12T05:21:22.924Z,0
2017-03-12T05:22:31.659Z,0
2017-03-12T05:23:41.207Z,4
2017-03-12T05:24:50.303Z,4
2017-03-12T05:25:59.747Z,0
2017-03-12T05:27:08.364Z,4
2017-03-12T05:28:17.506Z,4
2017-03-12T05:29:27.339Z,4
2017-03-12T05:30:37.251Z,4
2017-03-12T05:31:47.110Z,8
2017-03-12T05:32:56.159Z,8
2017-03-12T05:34:05.648Z,12
2017-03-12T05:35:14.707Z,12
2017-03-12T05:36:24.190Z,16
2017-03-12T05:37:33.670Z,20
2017-03-12T05:38:43.574Z,20
2017-03-12T05:39:53.159Z,24
2017-03-12T05:41:02.591Z,28
2017-03-12T05:42:12.546Z,36
2017-03-12T05:43:21.254Z,44
2017-03-12T05:44:31.172Z,48
2017-03-12T05:45:40.215Z,60
2017-03-12T05:46:49.368Z,68
2017-03-12T05:47:58.774Z,76
2017-03-12T05:49:08.704Z,88
2017-03-12T05:50:17.844Z,96
2017-03-12T05:51:26.467Z,112
2017-03-12T05:52:35.582Z,128
2017-03-12T05:53:44.984Z,148
2017-03-12T05:54:53.978Z,164
2017-03-12T05:56:04.072Z,184
2017-03-12T05:57:12.678Z,204
2017-03-12T05:58:21.693Z,228
2017-03-12T05:59:31.113Z,256
2017-03-12T06:00:40.515Z,284
2017-03-12T06:01:49.523Z,312
2017-03-12T06:02:58.923Z,348
2017-03-12T06:04:07.934Z,380
2017-03-12T06:05:17.342Z,408
2017-03-12T06:06:26.342Z,436
2017-03-12T06:07:35.353Z,468
2017-03-12T06:08:43.966Z,504
2017-03-12T06:09:52.969Z,544
2017-03-12T06:11:01.576Z,584
2017-03-12T06:12:11.023Z,628
2017-03-12T06:13:19.622Z,672
2017-03-12T06:14:28.642Z,716
2017-03-12T06:15:37.667Z,760
2017-03-12T06:16:46.672Z,808
2017-03-12T06:17:56.488Z,852
2017-03-12T06:19:05.481Z,900
2017-03-12T06:20:14.505Z,948
2017-03-12T06:21:23.904Z,1000
2017-03-12T06:22:32.525Z,1048
2017-03-12T06:23:41.143Z,1100
2017-03-12T06:24:50.578Z,1144
2017-03-12T06:25:59.991Z,1192
2017-03-12T06:27:08.614Z,1244
2017-03-12T06:28:18.310Z,1292
2017-03-12T06:29:26.951Z,1340
2017-03-12T06:30:36.375Z,1388
2017-03-12T06:31:44.976Z,1432
2017-03-12T06:32:54.388Z,1480
2017-03-12T06:34:03.404Z,1520
2017-03-12T06:35:12.417Z,1560
2017-03-12T06:36:21.031Z,1608
2017-03-12T06:37:30.474Z,1652
2017-03-12T06:38:39.108Z,1696
2017-03-12T06:39:48.556Z,1744
2017-03-12T06:40:57.962Z,1788
2017-03-12T06:42:06.576Z,1832
2017-03-12T06:43:15.590Z,1884
2017-03-12T06:44:24.992Z,1940
2017-03-12T06:45:34.816Z,1992
2017-03-12T06:46:44.219Z,2048
2017-03-12T06:47:53.216Z,2100
2017-03-12T06:49:03.017Z,2160
2017-03-12T06:50:12.040Z,2224
2017-03-12T06:51:21.457Z,2284
2017-03-12T06:52:30.480Z,2352
2017-03-12T06:53:39.104Z,2416
2017-03-12T06:54:47.703Z,2480
2017-03-12T06:55:57.099Z,2536
2017-03-12T06:57:06.511Z,2600
2017-03-12T06:58:15.139Z,2668
2017-03-12T06:59:24.388Z,2728
2017-03-12T07:00:34.188Z,2792
2017-03-12T07:01:43.605Z,2848
2017-03-12T07:02:52.250Z,2920
2017-03-12T07:04:03.016Z,2984
2017-03-12T07:05:12.224Z,3040
2017-03-12T07:06:21.291Z,3096
2017-03-12T07:07:31.237Z,3136
2017-03-12T07:08:40.251Z,3184
2017-03-12T07:09:49.546Z,3216
2017-03-12T07:10:59.009Z,3236
2017-03-12T07:12:08.233Z,3256
2017-03-12T07:13:16.893Z,3272
2017-03-12T07:14:26.329Z,3288
2017-03-12T07:15:35.343Z,3300
2017-03-12T07:16:44.363Z,3316
2017-03-12T07:17:53.033Z,3336
2017-03-12T07:19:01.641Z,3356
2017-03-12T07:20:10.646Z,3368
2017-03-12T07:21:19.644Z,3380
2017-03-12T07:22:29.086Z,3388
2017-03-12T07:23:38.096Z,3392
2017-03-12T07:24:47.121Z,3384
2017-03-12T07:25:56.170Z,3400
2017-03-12T07:27:05.211Z,3420
2017-03-12T07:28:14.227Z,3436
2017-03-12T07:29:23.671Z,3448
2017-03-12T07:30:33.069Z,3464
2017-03-12T07:31:42.876Z,3476
2017-03-12T07:32:52.679Z,3496
2017-03-12T07:34:01.702Z,3516
2017-03-12T07:35:11.534Z,3536
2017-03-12T07:36:20.940Z,3548
2017-03-12T07:37:30.372Z,3560
2017-03-12T07:38:40.173Z,3560
2017-03-12T07:39:48.776Z,3552
2017-03-12T07:40:58.444Z,3548
2017-03-12T07:42:07.859Z,3556
2017-03-12T07:43:17.665Z,3560
2017-03-12T07:44:27.474Z,3572
2017-03-12T07:45:36.477Z,3596
2017-03-12T07:46:45.078Z,3616
2017-03-12T07:47:54.514Z,3632
2017-03-12T07:49:03.520Z,3648
2017-03-12T07:50:12.950Z,3668
2017-03-12T07:51:22.792Z,3680
2017-03-12T07:52:32.204Z,3708
2017-03-12T07:53:41.628Z,3740
2017-03-12T07:54:51.028Z,3760
2017-03-12T07:56:00.048Z,3788
2017-03-12T07:57:09.450Z,3816
2017-03-12T07:58:18.867Z,3836
2017-03-12T07:59:27.907Z,3864
2017-03-12T08:00:36.926Z,3900
2017-03-12T08:01:46.347Z,3924
2017-03-12T08:02:54.949Z,3936
2017-03-12T08:04:04.471Z,3944
2017-03-12T08:05:13.525Z,3988
2017-03-12T08:06:22.562Z,4008
2017-03-12T08:07:31.979Z,4016
2017-03-12T08:08:41.047Z,4012
2017-03-12T08:09:50.085Z,4000
2017-03-12T08:10:59.246Z,4028
2017-03-12T08:12:08.702Z,4040
2017-03-12T08:13:17.332Z,4020
2017-03-12T08:14:25.982Z,4016
2017-03-12T08:15:34.608Z,4008
2017-03-12T08:16:43.613Z,4020
2017-03-12T08:17:52.633Z,4012
2017-03-12T08:19:01.650Z,4020
2017-03-12T08:20:10.706Z,4028
2017-03-12T08:21:20.522Z,4020
2017-03-12T08:22:29.552Z,4024
2017-03-12T08:23:38.287Z,4032
2017-03-12T08:24:46.902Z,4032
2017-03-12T08:25:55.575Z,4020
2017-03-12T08:27:04.667Z,4012
2017-03-12T08:28:13.721Z,4020
2017-03-12T08:29:23.596Z,4004
2017-03-12T08:30:32.601Z,4036
2017-03-12T08:31:41.630Z,4080
2017-03-12T08:32:51.137Z,4116
2017-03-12T08:34:00.611Z,4200
2017-03-12T08:35:09.661Z,4256
2017-03-12T08:36:19.095Z,4288
2017-03-12T08:37:28.234Z,4300
2017-03-12T08:38:37.926Z,4312
2017-03-12T08:39:46.943Z,4312
2017-03-12T08:40:55.957Z,4312
2017-03-12T08:42:04.975Z,4336
2017-03-12T08:43:13.983Z,4368
2017-03-12T08:44:22.606Z,4400
2017-03-12T08:45:31.211Z,4424
2017-03-12T08:46:40.222Z,4436
2017-03-12T08:47:48.835Z,4472
2017-03-12T08:48:57.849Z,4516
2017-03-12T08:50:06.876Z,4584
2017-03-12T08:51:15.530Z,4664
2017-03-12T08:52:24.697Z,4788
2017-03-12T08:53:34.513Z,4884
2017-03-12T08:54:43.112Z,5012
2017-03-12T08:55:51.747Z,5168
2017-03-12T08:57:00.400Z,5336
2017-03-12T08:58:09.405Z,5568
2017-03-12T08:59:18.848Z,5812
2017-03-12T09:00:27.466Z,6044
2017-03-12T09:01:36.461Z,6232
2017-03-12T09:02:45.087Z,6448
2017-03-12T09:03:54.103Z,6652
2017-03-12T09:05:03.119Z,6776
2017-03-12T09:06:12.559Z,6932
2017-03-12T09:07:21.979Z,7052
2017-03-12T09:08:31.393Z,7204
2017-03-12T09:09:39.995Z,7252
2017-03-12T09:10:48.629Z,7292
2017-03-12T09:11:57.293Z,7300
2017-03-12T09:13:06.301Z,7160
2017-03-12T09:14:16.106Z,7072
2017-03-12T09:15:25.532Z,6956
2017-03-12T09:16:34.532Z,6856
2017-03-12T09:17:43.146Z,6820
2017-03-12T09:18:52.141Z,6804
2017-03-12T09:20:01.180Z,6732
2017-03-12T09:21:10.469Z,6692
2017-03-12T09:22:19.486Z,6688
2017-03-12T09:23:28.924Z,6592
2017-03-12T09:24:37.546Z,6556
2017-03-12T09:25:46.570Z,6616
2017-03-12T09:26:55.995Z,6576
2017-03-12T09:28:05.052Z,6556
2017-03-12T09:29:14.060Z,6636
2017-03-12T09:30:23.059Z,6744
2017-03-12T09:31:35.078Z,6964
2017-03-12T09:32:44.205Z,7044
2017-03-12T09:33:53.211Z,7324
2017-03-12T09:35:02.577Z,7528
2017-03-12T09:36:11.228Z,7616
2017-03-12T09:37:20.270Z,7792
2017-03-12T09:38:30.120Z,7944
2017-03-12T09:39:38.763Z,7932
2017-03-12T09:40:48.176Z,7896
2017-03-12T09:41:57.197Z,7852
2017-03-12T09:43:06.207Z,7856
2017-03-12T09:44:15.291Z,7904
2017-03-12T09:45:24.416Z,7848
2017-03-12T09:46:33.845Z,7804
2017-03-12T09:47:42.884Z,7724
2017-03-12T09:48:52.702Z,7648
2017-03-12T09:50:01.398Z,7708
2017-03-12T09:51:10.493Z,7672
2017-03-12T09:52:19.583Z,7592
2017-03-12T09:53:29.487Z,7608
2017-03-12T09:54:40.084Z,7616
2017-03-12T09:55:51.617Z,7648
2017-03-12T09:57:02.054Z,7848
2017-03-12T09:58:12.459Z,7872
2017-03-12T09:59:23.956Z,7936
2017-03-12T10:00:34.873Z,8168
2017-03-12T10:01:46.484Z,8108
2017-03-12T10:02:56.356Z,7976
2017-03-12T10:04:07.215Z,7980
2017-03-12T10:05:18.433Z,7936
2017-03-12T10:06:29.907Z,7688
2017-03-12T10:07:40.481Z,7640
2017-03-12T10:08:52.523Z,7604
2017-03-12T10:10:03.555Z,7420
2017-03-12T10:11:14.242Z,7336
2017-03-12T10:12:24.952Z,7312
2017-03-12T10:13:35.586Z,7172
2017-03-12T10:14:45.992Z,7088
2017-03-12T10:15:56.515Z,7060
2017-03-12T10:17:07.606Z,6932
2017-03-12T10:18:18.737Z,6844
2017-03-12T10:19:30.370Z,6900
2017-03-12T10:20:40.638Z,6684
2017-03-12T10:21:50.806Z,6556
2017-03-12T10:23:01.298Z,6400
2017-03-12T10:24:11.599Z,6264
2017-03-12T10:25:22.471Z,6188
2017-03-12T10:26:33.201Z,6060
2017-03-12T10:27:43.201Z,6028
2017-03-12T10:28:52.969Z,5972
2017-03-12T10:30:03.478Z,5852
2017-03-12T10:31:13.323Z,5812
2017-03-12T10:32:24.641Z,5800
2017-03-12T10:33:36.826Z,5840
2017-03-12T10:34:48.442Z,5836
2017-03-12T10:35:58.029Z,5856
2017-03-12T10:37:07.978Z,5900
2017-03-12T10:38:17.759Z,5948
2017-03-12T10:39:27.435Z,6028
2017-03-12T10:40:36.848Z,6388
2017-03-12T10:41:45.927Z,6220
2017-03-12T10:42:55.363Z,6280
2017-03-12T10:44:04.920Z,6144
2017-03-12T10:45:13.956Z,6132
2017-03-12T10:46:23.415Z,6060
2017-03-12T10:47:32.069Z,6052
2017-03-12T10:48:41.524Z,6072
2017-03-12T10:49:51.830Z,6132
2017-03-12T10:51:01.337Z,6152
2017-03-12T10:52:10.801Z,5932
2017-03-12T10:53:19.898Z,5848
2017-03-12T10:54:29.354Z,5748
2017-03-12T10:55:38.791Z,5724
2017-03-12T10:56:47.832Z,5736
2017-03-12T10:57:57.274Z,5804
2017-03-12T10:59:05.917Z,5904
2017-03-12T11:00:14.553Z,6096
2017-03-12T11:01:23.563Z,6088
2017-03-12T11:02:32.207Z,6212
2017-03-12T11:03:41.265Z,6172
2017-03-12T11:04:50.301Z,6060
2017-03-12T11:05:59.334Z,6144
2017-03-12T11:07:08.777Z,6068
2017-03-12T11:08:17.419Z,5996
2017-03-12T11:09:26.047Z,5964
2017-03-12T11:10:35.312Z,5868
2017-03-12T11:11:43.981Z,5788
2017-03-12T11:12:52.606Z,5680
2017-03-12T11:14:02.063Z,5660
2017-03-12T11:15:11.127Z,5584
2017-03-12T11:16:20.548Z,5516
2017-03-12T11:17:29.550Z,5436
2017-03-12T11:18:38.155Z,5356
2017-03-12T11:19:47.986Z,5288
2017-03-12T11:20:56.879Z,5224
2017-03-12T11:22:05.882Z,5164
2017-03-12T11:23:15.697Z,5136
2017-03-12T11:24:24.699Z,5108
2017-03-12T11:25:33.304Z,5000
2017-03-12T11:26:42.307Z,5004
2017-03-12T11:27:51.712Z,5048
2017-03-12T11:29:00.325Z,5056
2017-03-12T11:30:08.948Z,5076
2017-03-12T11:31:17.570Z,4908
2017-03-12T11:32:26.613Z,5096
2017-03-12T11:33:36.158Z,5028
2017-03-12T11:34:45.648Z,4940
2017-03-12T11:35:55.147Z,5040
2017-03-12T11:37:07.973Z,4944
2017-03-12T11:38:17.019Z,5120
2017-03-12T11:39:26.447Z,5100
2017-03-12T11:40:35.060Z,5084
2017-03-12T11:41:44.075Z,5092
2017-03-12T11:42:53.112Z,5056
2017-03-12T11:44:02.539Z,5028
2017-03-12T11:45:11.550Z,5020
2017-03-12T11:46:20.565Z,5056
2017-03-12T11:47:32.234Z,5096
2017-03-12T11:48:44.611Z,5160
2017-03-12T11:49:55.024Z,5224
2017-03-12T11:51:06.510Z,5364
2017-03-12T11:52:17.674Z,5648
2017-03-12T11:53:28.310Z,5652
2017-03-12T11:54:39.003Z,5848
2017-03-12T11:55:49.724Z,6060
2017-03-12T11:57:01.877Z,6400
2017-03-12T11:58:12.796Z,6352
2017-03-12T11:59:25.044Z,6436
2017-03-12T12:00:37.056Z,6640
2017-03-12T12:01:46.115Z,6616
2017-03-12T12:02:55.135Z,6380
2017-03-12T12:04:04.938Z,6284
2017-03-12T12:05:13.947Z,6204
2017-03-12T12:06:23.374Z,6136
2017-03-12T12:07:32.379Z,6096
2017-03-12T12:08:42.199Z,6060
2017-03-12T12:09:51.216Z,6004
2017-03-12T12:11:00.655Z,5928
2017-03-12T12:12:09.280Z,5920
2017-03-12T12:13:18.750Z,5864
2017-03-12T12:14:28.570Z,5892
2017-03-12T12:15:37.195Z,5700
2017-03-12T12:16:46.224Z,5548
2017-03-12T12:17:56.178Z,5460
2017-03-12T12:19:07.594Z,5356
2017-03-12T12:20:18.826Z,5244
2017-03-12T12:21:30.878Z,5096
2017-03-12T12:22:42.894Z,4964
2017-03-12T12:23:55.216Z,4888
2017-03-12T12:25:06.875Z,4788
2017-03-12T12:26:17.998Z,4716
2017-03-12T12:27:29.213Z,4644
2017-03-12T12:28:41.394Z,4596
2017-03-12T12:29:51.005Z,4572
2017-03-12T12:31:03.082Z,4588
2017-03-12T12:32:13.766Z,4540
2017-03-12T12:33:25.392Z,4504
2017-03-12T12:34:35.358Z,4488
2017-03-12T12:35:46.449Z,4484
2017-03-12T12:36:57.149Z,4428
2017-03-12T12:38:09.246Z,4516
2017-03-12T12:39:19.174Z,4620
2017-03-12T12:40:29.627Z,4480
2017-03-12T12:41:39.854Z,4508
2017-03-12T12:42:49.401Z,4488
2017-03-12T12:44:00.997Z,4600
2017-03-12T12:45:10.644Z,4552
2017-03-12T12:46:22.215Z,4392
2017-03-12T12:47:32.250Z,4468
2017-03-12T12:48:42.682Z,4372
2017-03-12T12:49:54.606Z,4508
2017-03-12T12:51:34.352Z,4488
2017-03-12T12:52:44.299Z,4512
2017-03-12T12:53:56.344Z,4236
2017-03-12T12:55:08.575Z,4340
2017-03-12T12:56:20.649Z,4280
2017-03-12T12:57:31.709Z,4220
2017-03-12T12:58:42.934Z,4156
2017-03-12T12:59:53.470Z,4136
2017-03-12T13:01:03.753Z,4188
2017-03-12T13:02:13.608Z,4228
2017-03-12T13:03:24.981Z,4212
2017-03-12T13:04:36.356Z,4072
2017-03-12T13:05:47.779Z,4116
2017-03-12T13:06:59.667Z,4392
2017-03-12T13:08:09.798Z,4252
2017-03-12T13:09:18.602Z,4444
2017-03-12T13:10:27.890Z,4384
2017-03-12T13:11:36.504Z,4448
2017-03-12T13:12:45.126Z,4416
2017-03-12T13:13:54.184Z,4420
2017-03-12T13:15:03.239Z,4436
2017-03-12T13:16:12.256Z,4420
2017-03-12T13:17:21.382Z,4428
2017-03-12T13:18:30.816Z,4432
2017-03-12T13:19:39.985Z,4428
2017-03-12T13:20:49.479Z,4420
2017-03-12T13:21:58.896Z,4416
2017-03-12T13:23:07.931Z,4412
2017-03-12T13:24:17.770Z,4352
2017-03-12T13:25:27.196Z,4324
2017-03-12T13:26:35.808Z,4356
2017-03-12T13:27:45.272Z,4364
2017-03-12T13:28:53.890Z,4376
2017-03-12T13:30:02.996Z,4376
2017-03-12T13:31:12.454Z,4320
2017-03-12T13:32:21.911Z,4356
2017-03-12T13:33:31.769Z,4344
2017-03-12T13:34:40.856Z,4320
2017-03-12T13:35:50.207Z,4296
2017-03-12T13:36:59.691Z,4176
2017-03-12T13:38:08.777Z,4068
2017-03-12T13:39:18.235Z,4028
2017-03-12T13:40:27.279Z,3988
2017-03-12T13:41:36.328Z,3956
2017-03-12T13:42:45.439Z,3896
2017-03-12T13:43:54.507Z,3868
2017-03-12T13:45:03.711Z,3892
2017-03-12T13:46:13.254Z,3924
2017-03-12T13:47:21.892Z,3956
2017-03-12T13:48:30.971Z,4000
2017-03-12T13:49:40.408Z,4108
2017-03-12T13:50:49.047Z,4208
2017-03-12T13:51:58.094Z,4220
2017-03-12T13:53:06.734Z,4244
2017-03-12T13:54:15.388Z,4272
2017-03-12T13:55:24.425Z,4336
2017-03-12T13:56:33.066Z,4384
2017-03-12T13:57:42.379Z,4388
2017-03-12T13:58:52.222Z,4440
2017-03-12T14:00:01.657Z,4488
2017-03-12T14:01:10.303Z,4564
2017-03-12T14:02:19.368Z,4608
2017-03-12T14:03:28.410Z,4692
2017-03-12T14:04:37.888Z,4868
2017-03-12T14:05:47.365Z,4964
2017-03-12T14:06:56.001Z,5016
2017-03-12T14:08:05.480Z,5052
2017-03-12T14:09:14.918Z,5080
2017-03-12T14:10:24.332Z,5112
2017-03-12T14:11:33.342Z,5136
2017-03-12T14:12:41.957Z,5164
2017-03-12T14:13:52.229Z,5192
2017-03-12T14:15:01.353Z,5212
2017-03-12T14:16:09.965Z,5236
2017-03-12T14:17:19.635Z,5252
2017-03-12T14:18:29.436Z,5268
2017-03-12T14:19:38.863Z,5284
2017-03-12T14:20:48.385Z,5280
2017-03-12T14:21:57.414Z,5276
2017-03-12T14:23:07.250Z,5272
2017-03-12T14:24:16.295Z,5276
2017-03-12T14:25:25.734Z,5288
2017-03-12T14:26:34.359Z,5320
2017-03-12T14:27:43.914Z,5372
2017-03-12T14:28:52.951Z,5416
2017-03-12T14:30:01.597Z,5432
2017-03-12T14:31:10.647Z,5412
2017-03-12T14:32:19.937Z,5372
2017-03-12T14:33:28.955Z,5332
2017-03-12T14:34:38.788Z,5280
2017-03-12T14:35:47.394Z,5236
2017-03-12T14:36:56.822Z,5204
2017-03-12T14:38:05.924Z,5184
2017-03-12T14:39:14.550Z,5176
2017-03-12T14:40:23.576Z,5160
2017-03-12T14:41:33.012Z,5156
2017-03-12T14:42:42.437Z,5152
2017-03-12T14:43:51.457Z,5152
2017-03-12T14:45:00.536Z,5132
2017-03-12T14:46:09.158Z,5116
2017-03-12T14:47:18.577Z,5096
2017-03-12T14:48:27.991Z,5100
2017-03-12T14:49:36.637Z,5088
2017-03-12T14:50:46.041Z,5092
2017-03-12T14:51:55.845Z,5124
2017-03-12T14:53:04.852Z,5100
2017-03-12T14:54:14.266Z,5084
2017-03-12T14:55:23.682Z,5060
2017-03-12T14:56:32.689Z,5020
2017-03-12T14:57:41.722Z,4992
2017-03-12T14:58:50.768Z,4952
2017-03-12T14:59:59.774Z,4916
2017-03-12T15:01:08.811Z,4900
2017-03-12T15:02:18.221Z,4852
2017-03-12T15:03:26.837Z,4784
2017-03-12T15:04:35.770Z,4756
2017-03-12T15:05:44.775Z,4716
2017-03-12T15:06:54.432Z,4688
2017-03-12T15:08:03.445Z,4656
2017-03-12T15:09:12.466Z,4580
2017-03-12T15:10:21.092Z,4500
2017-03-12T15:11:30.146Z,4440
2017-03-12T15:12:38.798Z,4384
2017-03-12T15:13:47.816Z,4328
2017-03-12T15:14:56.879Z,4264
2017-03-12T15:16:06.339Z,4232
2017-03-12T15:17:16.214Z,4204
2017-03-12T15:18:25.350Z,4200
2017-03-12T15:19:34.034Z,4252
2017-03-12T15:20:43.044Z,4340
2017-03-12T15:21:52.481Z,4368
2017-03-12T15:23:01.956Z,4376
2017-03-12T15:24:10.643Z,4392
2017-03-12T15:25:20.091Z,4412
2017-03-12T15:26:29.135Z,4424
2017-03-12T15:27:38.194Z,4412
2017-03-12T15:28:46.860Z,4348
2017-03-12T15:29:55.523Z,4244
2017-03-12T15:31:04.594Z,4200
2017-03-12T15:32:13.230Z,4128
2017-03-12T15:33:21.907Z,4048
2017-03-12T15:34:30.938Z,4012
2017-03-12T15:35:39.984Z,3892
2017-03-12T15:36:50.228Z,3784
2017-03-12T15:37:58.873Z,3708
2017-03-12T15:39:07.506Z,3664
2017-03-12T15:40:16.550Z,3644
2017-03-12T15:41:25.193Z,3624
2017-03-12T15:42:33.830Z,3604
2017-03-12T15:43:43.302Z,3608
2017-03-12T15:44:52.354Z,3552
2017-03-12T15:46:01.684Z,3496
2017-03-12T15:47:10.765Z,3472
2017-03-12T15:48:20.201Z,3436
2017-03-12T15:49:29.209Z,3396
2017-03-12T15:50:37.820Z,3384
2017-03-12T15:51:47.234Z,3372
2017-03-12T15:52:55.843Z,3376
2017-03-12T15:54:05.284Z,3376
2017-03-12T15:55:14.307Z,3360
2017-03-12T15:56:25.940Z,3340
2017-03-12T15:57:34.972Z,3328
2017-03-12T15:58:44.013Z,3304
2017-03-12T15:59:53.023Z,3268